Time;durP1;ratioP1;P1;durP2;ratioP2;P2;SDS_P1;SDS_P2;PMS_P1;PMS_P2;Temp;Humidity;BMP_temperature;BMP_pressure;BME280_temperature;BME280_humidity;BME280_pressure;Samples;Min_cycle;Max_cycle;Signal;HPM_P1;HPM_P2
2022/11/20 00:01:16;;;;;;;19.70;13.85;;;1.30;99.90;;;;;;6094571;23;95681;-73
2022/11/20 00:03:43;;;;;;;18.75;13.35;;;1.40;99.90;;;;;;6069707;23;92417;-73
2022/11/20 00:06:16;;;;;;;23.30;15.05;;;1.40;99.90;;;;;;6095530;23;93245;-73
2022/11/20 00:08:44;;;;;;;22.38;15.60;;;1.40;99.90;;;;;;6068975;23;94217;-73
2022/11/20 00:11:16;;;;;;;20.55;13.73;;;1.50;99.90;;;;;;6095808;23;92366;-73
2022/11/20 00:13:48;;;;;;;21.13;14.88;;;1.50;99.90;;;;;;6069221;23;94234;-73
2022/11/20 00:16:18;;;;;;;22.58;14.68;;;1.60;99.90;;;;;;6095720;23;93049;-73
2022/11/20 00:18:45;;;;;;;20.23;15.45;;;1.60;99.90;;;;;;6069693;23;92854;-73
2022/11/20 00:21:18;;;;;;;21.42;14.85;;;1.60;99.90;;;;;;6095801;23;92298;-73
2022/11/20 00:23:45;;;;;;;20.67;15.17;;;1.70;99.90;;;;;;6045290;23;92531;-73
2022/11/20 00:26:15;;;;;;;22.25;15.05;;;1.70;99.90;;;;;;6067839;23;95557;-73
2022/11/20 00:28:43;;;;;;;22.73;15.65;;;1.70;99.90;;;;;;6068539;23;98352;-73
2022/11/20 00:31:13;;;;;;;23.75;14.68;;;1.70;99.90;;;;;;6095646;23;92391;-73
2022/11/20 00:33:40;;;;;;;21.55;14.80;;;1.70;99.90;;;;;;6095404;23;92369;-73
2022/11/20 00:36:10;;;;;;;21.77;15.10;;;1.80;99.90;;;;;;6095077;23;93405;-73
2022/11/20 00:38:37;;;;;;;22.65;16.08;;;1.80;99.90;;;;;;6095407;23;92538;-73
2022/11/20 00:41:08;;;;;;;23.73;14.90;;;1.80;99.90;;;;;;6069575;23;92342;-73
2022/11/20 00:43:36;;;;;;;20.08;14.73;;;1.80;99.90;;;;;;6069921;23;91708;-73
2022/11/20 00:46:10;;;;;;;21.52;14.93;;;1.80;99.90;;;;;;6095344;23;93136;-73
2022/11/20 00:48:37;;;;;;;23.30;15.38;;;1.90;99.90;;;;;;6068831;23;95470;-73
2022/11/20 00:51:04;;;;;;;19.15;13.40;;;1.90;99.90;;;;;;6094258;23;94687;-73
2022/11/20 00:53:31;;;;;;;19.70;13.32;;;1.90;99.90;;;;;;6069507;23;92541;-73
2022/11/20 00:56:01;;;;;;;21.15;13.48;;;1.90;99.90;;;;;;6095579;23;93058;-73
2022/11/20 00:58:33;;;;;;;19.73;13.60;;;1.90;99.90;;;;;;6095370;23;92370;-73
2022/11/20 01:01:12;;;;;;;18.40;13.52;;;1.90;99.90;;;;;;6068993;23;93001;-73
2022/11/20 01:03:43;;;;;;;18.40;13.57;;;1.90;99.90;;;;;;6095391;23;92298;-73
2022/11/20 01:06:20;;;;;;;18.15;13.45;;;1.90;99.90;;;;;;6095209;23;93033;-73
2022/11/20 01:08:49;;;;;;;20.27;14.35;;;1.90;99.90;;;;;;6069557;23;95402;-73
2022/11/20 01:11:21;;;;;;;19.75;13.07;;;1.90;99.90;;;;;;6044915;23;92668;-73
2022/11/20 01:13:50;;;;;;;18.05;12.32;;;1.90;99.90;;;;;;6095658;23;93277;-73
2022/11/20 01:16:24;;;;;;;17.33;12.15;;;1.90;99.90;;;;;;6067073;23;98028;-73
2022/11/20 01:18:53;;;;;;;17.08;12.48;;;1.90;99.90;;;;;;6044693;23;101504;-73
2022/11/20 01:21:24;;;;;;;17.40;12.45;;;1.90;99.90;;;;;;6095520;23;92400;-73
2022/11/20 01:23:52;;;;;;;18.08;12.80;;;2.00;99.90;;;;;;6095368;23;92377;-73
2022/11/20 01:26:21;;;;;;;18.15;11.95;;;1.90;99.90;;;;;;6095233;23;93275;-74
2022/11/20 01:28:49;;;;;;;15.73;12.18;;;1.90;99.90;;;;;;6095327;23;93076;-73
2022/11/20 01:31:23;;;;;;;16.50;11.98;;;1.90;99.90;;;;;;6069375;23;92452;-73
2022/11/20 01:33:55;;;;;;;16.90;11.63;;;2.00;99.90;;;;;;6069924;23;92105;-73
2022/11/20 01:36:25;;;;;;;15.10;10.90;;;2.00;99.90;;;;;;6094849;23;93256;-73
2022/11/20 01:38:53;;;;;;;16.27;11.60;;;2.00;99.90;;;;;;6069121;23;92676;-73
2022/11/20 01:44:11;;;;;;;16.85;11.32;;;2.00;99.90;;;;;;6095765;23;92286;-73
2022/11/20 01:46:47;;;;;;;17.17;11.30;;;2.00;99.90;;;;;;6069258;23;93390;-73
2022/11/20 01:49:23;;;;;;;14.63;11.25;;;2.00;99.90;;;;;;6044918;23;95461;-73
2022/11/20 01:52:01;;;;;;;17.98;11.25;;;2.00;99.90;;;;;;6095419;23;92957;-73
2022/11/20 01:54:43;;;;;;;17.08;11.82;;;2.00;99.90;;;;;;6069064;23;92392;-73
2022/11/20 01:57:11;;;;;;;14.30;11.27;;;2.00;99.90;;;;;;6095348;23;93213;-73
2022/11/20 01:59:45;;;;;;;15.80;11.00;;;2.00;99.90;;;;;;6095702;23;93100;-74
2022/11/20 02:02:11;;;;;;;13.98;10.45;;;2.00;99.90;;;;;;6044983;23;92377;-73
2022/11/20 02:04:38;;;;;;;17.05;11.38;;;2.00;99.90;;;;;;6069402;23;92493;-73
2022/11/20 02:07:06;;;;;;;18.58;11.30;;;2.00;99.90;;;;;;6093530;23;95581;-73
2022/11/20 02:09:32;;;;;;;15.98;11.07;;;2.00;99.90;;;;;;6068800;23;100176;-73
2022/11/20 02:12:00;;;;;;;16.83;10.57;;;2.00;99.90;;;;;;6068859;23;92489;-73
2022/11/20 02:14:28;;;;;;;18.20;11.90;;;2.00;99.90;;;;;;6069347;23;92688;-73
2022/11/20 02:16:55;;;;;;;16.77;11.45;;;2.10;99.90;;;;;;6067728;23;95622;-73
2022/11/20 02:19:27;;;;;;;15.98;11.07;;;2.10;99.90;;;;;;6044824;23;95955;-73
2022/11/20 02:21:59;;;;;;;15.73;11.85;;;2.10;99.90;;;;;;6095208;23;92312;-73
2022/11/20 02:24:26;;;;;;;16.65;11.65;;;2.20;99.90;;;;;;6069467;23;91651;-74
2022/11/20 02:26:56;;;;;;;16.70;12.20;;;2.10;99.90;;;;;;6094741;23;93179;-73
2022/11/20 02:29:37;;;;;;;16.52;11.25;;;2.20;99.90;;;;;;6094865;23;92763;-73
2022/11/20 02:32:05;;;;;;;15.00;10.65;;;2.20;99.90;;;;;;6066935;23;94834;-73
2022/11/20 02:34:32;;;;;;;17.00;11.45;;;2.20;99.90;;;;;;6044674;23;92488;-73
2022/11/20 02:36:59;;;;;;;13.95;10.82;;;2.20;99.90;;;;;;6044151;23;93696;-73
2022/11/20 02:39:28;;;;;;;17.02;11.15;;;2.20;99.90;;;;;;6094989;23;92310;-73
2022/11/20 02:41:56;;;;;;;15.35;10.65;;;2.20;99.90;;;;;;6068193;23;92430;-74
2022/11/20 02:44:23;;;;;;;16.88;11.02;;;2.20;99.90;;;;;;6069145;23;92441;-73
2022/11/20 02:46:50;;;;;;;18.48;11.07;;;2.20;99.90;;;;;;6068471;23;93191;-73
2022/11/20 02:49:16;;;;;;;16.05;10.77;;;2.20;99.90;;;;;;6069506;23;92968;-73
2022/11/20 02:51:44;;;;;;;17.73;11.35;;;2.20;99.90;;;;;;6068862;23;92884;-73
2022/11/20 02:54:10;;;;;;;17.92;12.20;;;2.20;99.90;;;;;;6044584;23;92539;-73
2022/11/20 02:56:39;;;;;;;15.15;11.07;;;2.20;99.90;;;;;;6042769;23;98181;-73
2022/11/20 02:59:06;;;;;;;17.60;10.60;;;2.20;99.90;;;;;;6094592;23;95958;-73
2022/11/20 03:01:33;;;;;;;19.02;10.88;;;2.20;99.90;;;;;;6094571;23;99246;-73
2022/11/20 03:04:00;;;;;;;13.73;9.55;;;2.20;99.90;;;;;;6094824;23;92367;-74
2022/11/20 03:06:27;;;;;;;15.73;10.80;;;2.20;99.90;;;;;;6094028;23;93225;-73
2022/11/20 03:08:54;;;;;;;12.63;9.52;;;2.20;99.90;;;;;;6094809;23;92880;-73
2022/11/20 03:11:21;;;;;;;17.38;10.95;;;2.20;99.90;;;;;;6095647;23;92334;-73
2022/11/20 03:13:48;;;;;;;16.92;11.52;;;2.20;99.90;;;;;;6095545;23;91671;-73
2022/11/20 03:16:20;;;;;;;15.45;10.32;;;2.10;99.90;;;;;;6094809;23;92798;-73
2022/11/20 03:18:47;;;;;;;14.88;10.60;;;2.10;99.90;;;;;;6095050;23;92833;-73
2022/11/20 03:21:16;;;;;;;16.50;11.05;;;2.10;99.90;;;;;;6093495;23;94707;-73
2022/11/20 03:23:43;;;;;;;17.02;11.65;;;2.20;99.90;;;;;;6068231;23;92456;-73
2022/11/20 03:26:14;;;;;;;15.00;10.52;;;2.20;99.90;;;;;;6068252;23;97734;-74
2022/11/20 03:28:46;;;;;;;15.38;10.75;;;2.20;99.90;;;;;;6068671;23;95297;-73
2022/11/20 03:31:14;;;;;;;14.90;10.90;;;2.30;99.90;;;;;;6045241;23;92791;-73
2022/11/20 03:33:42;;;;;;;16.23;11.57;;;2.30;99.90;;;;;;6095643;23;96433;-73
2022/11/20 03:36:12;;;;;;;13.73;9.88;;;2.30;99.90;;;;;;6068772;23;95875;-73
2022/11/20 03:38:40;;;;;;;15.45;10.70;;;2.30;99.90;;;;;;6096932;23;93237;-73
2022/11/20 03:41:12;;;;;;;16.60;10.80;;;2.30;99.90;;;;;;6069713;23;92572;-74
2022/11/20 03:43:40;;;;;;;17.10;11.40;;;2.30;99.90;;;;;;6069216;23;92463;-73
2022/11/20 03:46:07;;;;;;;17.63;11.93;;;2.40;99.90;;;;;;6093869;23;95562;-74
2022/11/20 03:48:34;;;;;;;15.10;11.57;;;2.40;99.90;;;;;;6069529;23;95263;-73
2022/11/20 03:51:15;;;;;;;15.02;10.82;;;2.40;99.90;;;;;;6095557;23;92439;-73
2022/11/20 03:53:44;;;;;;;14.70;10.40;;;2.40;99.90;;;;;;6095971;23;92394;-73
2022/11/20 03:56:13;;;;;;;23.27;11.82;;;2.40;99.90;;;;;;6068864;23;96048;-73
2022/11/20 03:58:42;;;;;;;15.98;11.45;;;2.40;99.90;;;;;;6068926;23;95583;-73
2022/11/20 04:01:16;;;;;;;14.55;10.63;;;2.40;99.90;;;;;;6069793;23;92341;-73
2022/11/20 04:03:44;;;;;;;14.88;11.27;;;2.40;99.90;;;;;;6096445;23;91642;-73
2022/11/20 04:06:13;;;;;;;18.70;11.23;;;2.30;99.90;;;;;;6095546;23;93436;-73
2022/11/20 04:08:41;;;;;;;14.55;10.63;;;2.30;99.90;;;;;;6095897;23;93063;-73
2022/11/20 04:11:19;;;;;;;14.98;10.38;;;2.30;99.90;;;;;;6068524;23;94796;-73
2022/11/20 04:13:48;;;;;;;17.30;11.48;;;2.30;99.90;;;;;;6069358;23;92405;-74
2022/11/20 04:16:16;;;;;;;14.32;10.43;;;2.30;99.90;;;;;;6044672;23;96603;-73
2022/11/20 04:18:44;;;;;;;16.05;10.43;;;2.30;99.90;;;;;;6095496;23;93225;-73
2022/11/20 04:21:11;;;;;;;15.48;11.63;;;2.30;99.90;;;;;;6094912;23;102187;-73
2022/11/20 04:23:39;;;;;;;13.13;10.18;;;2.30;99.90;;;;;;6069480;23;92408;-73
2022/11/20 04:26:08;;;;;;;15.93;11.32;;;2.40;99.90;;;;;;6045008;23;95407;-73
2022/11/20 04:28:35;;;;;;;13.00;10.63;;;2.40;99.90;;;;;;6068887;23;95532;-73
2022/11/20 04:31:07;;;;;;;15.13;10.60;;;2.40;99.90;;;;;;6068783;23;92385;-73
2022/11/20 04:33:35;;;;;;;14.07;11.20;;;2.40;99.90;;;;;;6069218;23;92455;-73
2022/11/20 04:36:11;;;;;;;16.38;11.40;;;2.40;99.90;;;;;;6093303;23;95391;-73
2022/11/20 04:38:39;;;;;;;17.67;11.80;;;2.40;99.90;;;;;;6095334;23;95407;-73
2022/11/20 04:41:14;;;;;;;15.88;11.65;;;2.40;99.90;;;;;;6095181;23;92338;-73
2022/11/20 04:43:41;;;;;;;15.93;11.07;;;2.40;99.90;;;;;;6095710;23;92301;-73
2022/11/20 04:46:08;;;;;;;17.10;11.27;;;2.50;99.90;;;;;;6068383;23;95867;-73
2022/11/20 04:48:35;;;;;;;15.00;10.77;;;2.50;99.90;;;;;;6068811;23;95524;-73
2022/11/20 04:51:06;;;;;;;16.33;10.98;;;2.50;99.90;;;;;;6069704;23;92359;-73
2022/11/20 04:53:33;;;;;;;16.38;10.98;;;2.50;99.90;;;;;;6069098;23;91860;-73
2022/11/20 04:56:08;;;;;;;13.95;10.63;;;2.40;99.90;;;;;;6094786;23;106458;-73
2022/11/20 04:58:35;;;;;;;14.65;10.52;;;2.50;99.90;;;;;;6045262;23;93062;-73
2022/11/20 05:01:12;;;;;;;14.05;10.02;;;2.50;99.90;;;;;;6093661;23;100222;-73
2022/11/20 05:03:43;;;;;;;14.95;10.88;;;2.50;99.90;;;;;;6069495;23;92522;-73
2022/11/20 05:06:12;;;;;;;16.33;11.82;;;2.50;99.90;;;;;;6068955;23;95846;-73
2022/11/20 05:08:40;;;;;;;15.85;11.15;;;2.50;99.90;;;;;;6094542;23;109217;-73
2022/11/20 05:11:10;;;;;;;14.52;10.57;;;2.50;99.90;;;;;;6069269;23;92493;-73
2022/11/20 05:13:38;;;;;;;16.50;10.60;;;2.50;99.90;;;;;;6095501;23;92300;-73
2022/11/20 05:16:10;;;;;;;16.20;11.23;;;2.50;99.90;;;;;;6095272;23;93234;-73
2022/11/20 05:18:37;;;;;;;14.05;10.55;;;2.60;99.90;;;;;;6044787;23;95644;-73
2022/11/20 05:21:05;;;;;;;14.93;10.10;;;2.60;99.90;;;;;;6069588;23;92927;-74
2022/11/20 05:23:33;;;;;;;16.55;10.95;;;2.60;99.90;;;;;;6069449;23;92487;-73
2022/11/20 05:26:01;;;;;;;16.88;10.48;;;2.50;99.90;;;;;;6043840;23;94897;-74
2022/11/20 05:28:29;;;;;;;14.45;10.80;;;2.60;99.90;;;;;;6068483;23;97837;-73
2022/11/20 05:31:03;;;;;;;15.10;10.57;;;2.60;99.90;;;;;;6095518;23;92310;-73
2022/11/20 05:33:30;;;;;;;16.02;11.07;;;2.60;99.90;;;;;;6070839;23;92455;-73
2022/11/20 05:36:00;;;;;;;13.55;10.63;;;2.60;99.90;;;;;;6068770;23;93162;-73
2022/11/20 05:38:27;;;;;;;14.40;10.52;;;2.60;99.90;;;;;;6067996;23;92479;-73
2022/11/20 05:40:54;;;;;;;16.50;11.82;;;2.60;99.90;;;;;;6069108;23;92422;-73
2022/11/20 05:43:21;;;;;;;16.45;11.25;;;2.60;99.90;;;;;;6095708;23;91787;-73
2022/11/20 05:45:53;;;;;;;13.75;10.60;;;2.60;99.90;;;;;;6095168;23;93176;-73
2022/11/20 05:48:20;;;;;;;15.48;11.07;;;2.60;99.90;;;;;;6068978;23;93028;-73
2022/11/20 05:50:48;;;;;;;13.98;10.38;;;2.60;99.90;;;;;;6093435;23;94879;-73
2022/11/20 05:53:15;;;;;;;16.48;11.02;;;2.60;99.90;;;;;;6095104;23;92393;-73
2022/11/20 05:55:42;;;;;;;13.73;10.20;;;2.50;99.90;;;;;;6095108;23;93054;-73
2022/11/20 05:58:09;;;;;;;15.98;10.57;;;2.60;99.90;;;;;;6068425;23;95727;-74
2022/11/20 06:00:36;;;;;;;14.73;11.02;;;2.50;99.90;;;;;;6044332;23;92422;-74
2022/11/20 06:03:03;;;;;;;15.18;10.65;;;2.50;99.90;;;;;;6045149;23;93049;-73
2022/11/20 06:05:29;;;;;;;17.55;11.55;;;2.50;99.90;;;;;;6068166;23;94259;-73
2022/11/20 06:07:56;;;;;;;16.20;10.93;;;2.50;99.90;;;;;;6095426;23;92938;-73
2022/11/20 06:10:23;;;;;;;14.73;10.88;;;2.50;99.90;;;;;;6095123;23;92862;-73
2022/11/20 06:12:50;;;;;;;15.05;11.23;;;2.50;99.90;;;;;;6095174;23;93018;-73
2022/11/20 06:15:17;;;;;;;17.10;11.38;;;2.50;99.90;;;;;;6067247;23;95501;-74
2022/11/20 06:17:44;;;;;;;14.70;9.98;;;2.50;99.90;;;;;;6094890;23;95439;-73
2022/11/20 06:20:11;;;;;;;17.48;10.77;;;2.50;99.90;;;;;;6068549;23;92540;-73
2022/11/20 06:22:38;;;;;;;14.43;10.88;;;2.50;99.90;;;;;;6068733;23;92418;-73
2022/11/20 06:25:05;;;;;;;13.18;9.73;;;2.50;99.90;;;;;;6068536;23;95741;-73
2022/11/20 06:27:32;;;;;;;15.05;10.70;;;2.50;99.90;;;;;;6068219;23;107080;-73
2022/11/20 06:29:59;;;;;;;15.48;10.23;;;2.50;99.90;;;;;;6068807;23;92454;-73
2022/11/20 06:32:25;;;;;;;13.32;10.13;;;2.50;99.90;;;;;;6095393;23;91675;-73
2022/11/20 06:34:52;;;;;;;12.70;9.57;;;2.50;99.90;;;;;;6068948;23;93282;-73
2022/11/20 06:37:19;;;;;;;13.27;9.93;;;2.50;99.90;;;;;;6044342;23;98571;-73
2022/11/20 06:39:46;;;;;;;15.00;11.55;;;2.50;99.90;;;;;;6068728;23;94833;-74
2022/11/20 06:42:13;;;;;;;12.68;9.73;;;2.50;99.90;;;;;;6095146;23;92687;-73
2022/11/20 06:44:40;;;;;;;13.00;10.05;;;2.50;99.90;;;;;;6044697;23;95919;-73
2022/11/20 06:47:07;;;;;;;14.48;10.27;;;2.50;99.90;;;;;;6044399;23;95846;-74
2022/11/20 06:49:34;;;;;;;13.30;10.02;;;2.50;99.90;;;;;;6068203;23;93433;-74
2022/11/20 06:52:01;;;;;;;13.55;10.10;;;2.50;99.90;;;;;;6044346;23;92443;-73
2022/11/20 06:54:27;;;;;;;13.43;9.13;;;2.50;99.90;;;;;;6068531;23;93203;-73
2022/11/20 06:56:54;;;;;;;13.68;9.98;;;2.60;99.90;;;;;;6069304;23;95532;-74
2022/11/20 06:59:21;;;;;;;13.23;9.98;;;2.60;99.90;;;;;;6068222;23;92491;-73
2022/11/20 07:01:48;;;;;;;13.73;10.20;;;2.50;99.90;;;;;;6068385;23;92571;-73
2022/11/20 07:04:15;;;;;;;15.63;10.82;;;2.60;99.90;;;;;;6067233;23;95345;-73
2022/11/20 07:06:42;;;;;;;12.45;9.40;;;2.60;99.90;;;;;;6094610;23;94191;-73
2022/11/20 07:09:09;;;;;;;12.13;9.43;;;2.60;99.90;;;;;;6095556;23;92440;-73
2022/11/20 07:11:38;;;;;;;12.85;9.73;;;2.60;99.90;;;;;;6068609;23;93012;-73
2022/11/20 07:14:05;;;;;;;16.15;11.48;;;2.60;99.90;;;;;;6068869;23;95654;-73
2022/11/20 07:16:32;;;;;;;13.10;10.38;;;2.60;99.90;;;;;;6094422;23;93014;-73
2022/11/20 07:18:59;;;;;;;13.32;9.77;;;2.60;99.90;;;;;;6044361;23;92463;-73
2022/11/20 07:21:26;;;;;;;15.07;9.85;;;2.60;99.90;;;;;;6095688;23;91656;-73
2022/11/20 07:23:53;;;;;;;13.98;9.60;;;2.60;99.90;;;;;;6068836;23;96004;-73
2022/11/20 07:26:19;;;;;;;14.15;10.35;;;2.60;99.90;;;;;;6069202;23;92936;-73
2022/11/20 07:28:46;;;;;;;14.05;10.00;;;2.60;99.90;;;;;;6093071;23;94794;-73
2022/11/20 07:31:13;;;;;;;14.82;10.75;;;2.60;99.90;;;;;;6068483;23;92496;-73
2022/11/20 07:33:44;;;;;;;15.00;10.35;;;2.60;99.90;;;;;;6094263;23;93327;-73
2022/11/20 07:36:11;;;;;;;13.95;9.93;;;2.70;99.90;;;;;;6093984;23;108437;-74
2022/11/20 07:38:38;;;;;;;15.95;11.05;;;2.70;99.90;;;;;;6039287;23;92448;-73
2022/11/20 07:41:05;;;;;;;15.80;10.18;;;2.70;99.90;;;;;;6063805;23;92581;-73
2022/11/20 07:43:32;;;;;;;15.15;10.68;;;2.70;99.90;;;;;;6063075;23;93924;-74
2022/11/20 07:46:04;;;;;;;13.05;10.55;;;2.80;99.90;;;;;;6064031;23;92964;-74
2022/11/20 07:48:31;;;;;;;14.60;10.27;;;2.80;99.90;;;;;;6064812;23;92413;-74
2022/11/20 07:50:58;;;;;;;13.38;10.05;;;2.90;99.90;;;;;;6065259;23;92413;-74
2022/11/20 07:53:25;;;;;;;13.95;10.30;;;2.90;99.90;;;;;;6063270;23;95581;-73
2022/11/20 07:55:54;;;;;;;15.20;10.85;;;2.90;99.90;;;;;;6064657;23;95359;-74
2022/11/20 07:58:21;;;;;;;13.38;9.50;;;3.00;99.90;;;;;;6015735;23;92454;-74
2022/11/20 08:00:49;;;;;;;13.40;9.98;;;3.10;99.90;;;;;;6065604;23;93082;-74
2022/11/20 08:03:16;;;;;;;13.50;10.57;;;3.10;99.90;;;;;;6039087;23;95701;-74
2022/11/20 08:05:49;;;;;;;15.18;11.00;;;3.10;99.90;;;;;;6063297;23;92967;-73
2022/11/20 08:08:16;;;;;;;15.10;10.57;;;3.20;99.90;;;;;;6064939;23;92438;-73
2022/11/20 08:10:43;;;;;;;13.63;9.98;;;3.20;99.90;;;;;;6063449;23;91750;-74
2022/11/20 08:15:55;;;;;;;14.13;10.55;;;3.30;99.90;;;;;;6065559;23;93204;-73
2022/11/20 08:18:22;;;;;;;16.83;12.32;;;3.30;99.90;;;;;;6063003;23;94917;-74
2022/11/20 08:20:57;;;;;;;12.23;9.55;;;3.30;99.90;;;;;;6066504;23;92457;-73
2022/11/20 08:23:24;;;;;;;14.15;10.23;;;3.30;99.90;;;;;;6066653;23;93106;-74
2022/11/20 08:25:51;;;;;;;14.52;9.57;;;3.30;99.90;;;;;;6015929;23;95723;-74
2022/11/20 08:28:18;;;;;;;12.93;9.25;;;3.40;99.90;;;;;;6041327;23;92363;-73
2022/11/20 08:30:48;;;;;;;11.90;9.38;;;3.40;99.90;;;;;;6066735;23;92429;-73
2022/11/20 08:33:15;;;;;;;13.68;9.32;;;3.50;99.90;;;;;;6066697;23;93342;-73
2022/11/20 08:35:42;;;;;;;13.32;10.05;;;3.50;99.90;;;;;;6041006;23;95602;-73
2022/11/20 08:38:09;;;;;;;12.10;9.15;;;3.50;99.90;;;;;;6070746;23;93109;-74
2022/11/20 08:40:36;;;;;;;12.20;9.23;;;3.60;99.90;;;;;;6069824;23;92896;-74
2022/11/20 08:43:04;;;;;;;12.95;9.80;;;3.60;99.90;;;;;;6068135;23;97296;-74
2022/11/20 08:45:31;;;;;;;13.20;9.23;;;3.60;99.90;;;;;;6069588;23;102989;-74
2022/11/20 08:48:01;;;;;;;12.23;8.82;;;3.70;99.90;;;;;;6096339;23;92401;-73
2022/11/20 08:50:31;;;;;;;12.07;9.18;;;3.60;99.90;;;;;;6096331;23;92416;-74
2022/11/20 08:53:05;;;;;;;12.23;8.90;;;3.70;99.90;;;;;;6069782;23;93176;-74
2022/11/20 08:55:35;;;;;;;11.57;9.02;;;3.70;99.90;;;;;;6069987;23;94707;-74
2022/11/20 08:58:08;;;;;;;11.90;8.70;;;3.70;99.90;;;;;;6046172;23;92528;-74
2022/11/20 09:00:35;;;;;;;13.00;9.43;;;3.70;99.90;;;;;;6095512;23;91716;-74
2022/11/20 09:03:02;;;;;;;14.63;9.27;;;3.70;99.90;;;;;;6069615;23;93065;-74
2022/11/20 09:05:29;;;;;;;10.05;8.60;;;3.70;99.90;;;;;;6094817;23;92794;-74
2022/11/20 09:07:59;;;;;;;12.38;9.10;;;3.80;99.90;;;;;;6068556;23;94848;-74
2022/11/20 09:10:26;;;;;;;11.18;8.35;;;3.90;99.90;;;;;;6096148;23;92451;-74
2022/11/20 09:12:54;;;;;;;11.95;8.73;;;3.90;99.90;;;;;;6095911;23;92389;-74
2022/11/20 09:15:22;;;;;;;10.68;8.35;;;3.90;99.90;;;;;;6096171;23;92705;-73
2022/11/20 09:17:55;;;;;;;13.50;8.90;;;4.00;99.90;;;;;;6045632;23;92490;-74
2022/11/20 09:20:22;;;;;;;10.95;8.75;;;4.00;99.90;;;;;;6069769;23;92493;-74
2022/11/20 09:22:50;;;;;;;11.50;8.32;;;4.10;99.90;;;;;;6068910;23;95916;-74
2022/11/20 09:25:17;;;;;;;10.32;8.70;;;4.10;99.90;;;;;;6069512;23;95092;-74
2022/11/20 09:27:45;;;;;;;11.60;8.63;;;4.20;99.90;;;;;;6045245;23;97412;-74
2022/11/20 09:30:16;;;;;;;12.60;8.88;;;4.20;99.90;;;;;;6095980;23;92418;-74
2022/11/20 09:32:43;;;;;;;12.85;8.95;;;4.30;99.90;;;;;;6094177;23;95477;-74
2022/11/20 09:35:10;;;;;;;11.80;8.93;;;4.30;99.90;;;;;;6095910;23;95405;-74
2022/11/20 09:37:37;;;;;;;11.88;8.38;;;4.40;99.90;;;;;;6096299;23;92445;-74
2022/11/20 09:40:04;;;;;;;11.75;9.43;;;4.40;99.90;;;;;;6069724;23;92967;-74
2022/11/20 09:42:37;;;;;;;10.45;8.50;;;4.40;99.90;;;;;;6069864;23;93334;-74
2022/11/20 09:45:26;;;;;;;11.25;9.35;;;4.50;99.90;;;;;;6069409;23;93188;-74
2022/11/20 09:48:02;;;;;;;10.73;8.60;;;4.60;99.90;;;;;;6095969;23;92378;-74
2022/11/20 09:50:42;;;;;;;10.63;8.32;;;4.60;99.90;;;;;;6096611;23;91571;-74
2022/11/20 09:53:08;;;;;;;11.48;8.75;;;4.70;99.90;;;;;;6069343;23;95903;-74
2022/11/20 09:55:37;;;;;;;9.82;8.38;;;4.70;99.90;;;;;;6069233;23;94166;-74
2022/11/20 09:58:07;;;;;;;11.88;8.25;;;4.80;99.90;;;;;;6094345;23;94801;-74
2022/11/20 10:00:36;;;;;;;12.02;9.00;;;4.90;99.90;;;;;;6069727;23;92643;-74
2022/11/20 10:03:37;;;;;;;10.93;9.00;;;4.90;99.90;;;;;;6069361;23;92979;-74
2022/11/20 10:06:08;;;;;;;11.38;8.68;;;5.00;99.90;;;;;;6069115;23;95420;-74
2022/11/20 10:09:01;;;;;;;9.77;8.77;;;5.10;99.90;;;;;;6096149;23;92323;-74
2022/11/20 10:11:57;;;;;;;13.40;8.88;;;5.20;99.90;;;;;;6025501;23;92477;-74
2022/11/20 10:14:29;;;;;;;10.43;8.05;;;5.30;99.90;;;;;;6045395;23;95860;-74
2022/11/20 10:16:56;;;;;;;9.65;8.07;;;5.30;99.90;;;;;;6096138;23;93119;-74
2022/11/20 10:19:43;;;;;;;9.75;8.00;;;5.30;99.90;;;;;;6069079;23;92516;-74
2022/11/20 10:22:29;;;;;;;10.57;7.95;;;5.30;99.90;;;;;;6075931;23;92468;-73
2022/11/20 10:25:01;;;;;;;12.18;8.60;;;5.30;99.90;;;;;;6093971;23;94791;-74
2022/11/20 10:27:50;;;;;;;10.35;8.70;;;5.30;99.90;;;;;;6095612;23;95924;-74
2022/11/20 10:30:19;;;;;;;11.20;8.10;;;5.40;99.90;;;;;;6095907;23;92316;-73
2022/11/20 10:33:04;;;;;;;11.50;8.15;;;5.40;99.90;;;;;;6070066;23;92468;-73
2022/11/20 10:35:49;;;;;;;10.70;7.93;;;5.50;99.90;;;;;;6094327;23;93088;-73
2022/11/20 10:38:41;;;;;;;9.68;7.72;;;5.60;99.90;;;;;;6068688;23;95727;-74
2022/11/20 10:41:25;;;;;;;9.57;7.50;;;5.70;99.90;;;;;;6095092;23;92522;-74
2022/11/20 10:44:01;;;;;;;10.30;7.65;;;5.70;99.90;;;;;;6069956;23;91745;-74
2022/11/20 10:46:37;;;;;;;10.30;7.47;;;5.80;99.90;;;;;;6069475;23;95831;-74
2022/11/20 10:49:11;;;;;;;9.18;7.57;;;5.90;99.90;;;;;;6069121;23;95627;-74
2022/11/20 10:51:59;;;;;;;10.35;8.43;;;5.90;99.90;;;;;;6094585;23;94799;-74
2022/11/20 10:54:52;;;;;;;9.63;6.97;;;6.00;99.90;;;;;;6095851;23;92373;-74
2022/11/20 10:57:54;;;;;;;10.18;8.05;;;6.10;99.90;;;;;;6095398;23;93253;-74
2022/11/20 11:00:21;;;;;;;10.73;7.35;;;6.20;99.90;;;;;;6095914;23;92959;-74
2022/11/20 11:02:51;;;;;;;9.50;7.53;;;6.20;99.90;;;;;;6069863;23;92401;-74
2022/11/20 11:05:29;;;;;;;10.65;7.53;;;6.30;99.90;;;;;;6095497;23;92433;-74
2022/11/20 11:07:58;;;;;;;8.90;7.10;;;6.30;99.90;;;;;;6095624;23;93276;-74
2022/11/20 11:10:44;;;;;;;10.68;7.70;;;6.30;99.90;;;;;;6094878;23;115786;-74
2022/11/20 11:13:30;;;;;;;8.73;7.70;;;6.30;99.90;;;;;;6069110;23;92497;-74
2022/11/20 11:15:58;;;;;;;10.70;8.15;;;6.30;99.90;;;;;;6069201;23;93065;-74
2022/11/20 11:18:32;;;;;;;11.70;9.05;;;6.30;99.90;;;;;;6067314;23;98051;-74
2022/11/20 11:21:09;;;;;;;;;;;6.20;99.90;;;;;;6069164;23;98110;-74
2022/11/20 11:23:39;;;;;;;14.35;12.90;;;6.20;99.90;;;;;;6046652;23;92377;-74
2022/11/20 11:26:18;;;;;;;12.15;8.20;;;6.10;99.90;;;;;;6094414;23;92441;-74
2022/11/20 11:29:03;;;;;;;10.82;7.65;;;6.20;99.90;;;;;;6068979;23;95884;-74
2022/11/20 11:31:33;;;;;;;14.27;8.10;;;6.30;99.90;;;;;;6068994;23;92966;-74
2022/11/20 11:34:17;;;;;;;16.75;13.77;;;6.30;99.90;;;;;;6095723;23;92571;-74
2022/11/20 11:36:57;;;;;;;;;;;6.30;99.90;;;;;;6069610;23;91633;-74
2022/11/20 11:39:26;;;;;;;12.90;11.02;;;6.30;99.90;;;;;;6095978;23;93253;-74
2022/11/20 11:41:54;;;;;;;15.43;13.30;;;6.20;99.90;;;;;;6067776;23;95742;-74
2022/11/20 11:47:32;;;;;;;13.45;12.05;;;6.30;99.90;;;;;;6095217;23;92314;-74
2022/11/20 11:50:08;;;;;;;13.85;9.35;;;6.30;99.90;;;;;;6095051;23;93384;-74
2022/11/20 11:53:17;;;;;;;8.60;7.70;;;6.30;99.90;;;;;;6096570;23;93049;-74
2022/11/20 11:56:11;;;;;;;17.30;15.70;;;6.40;99.90;;;;;;6094964;23;92361;-74
2022/11/20 11:58:45;;;;;;;10.02;8.65;;;6.30;99.90;;;;;;6069640;23;92427;-74
2022/11/20 12:01:30;;;;;;;9.10;7.57;;;6.20;99.90;;;;;;6096150;23;93838;-74
2022/11/20 12:04:13;;;;;;;8.15;6.55;;;6.20;99.90;;;;;;6070523;23;95442;-74
2022/11/20 12:06:43;;;;;;;7.45;6.72;;;6.20;99.80;;;;;;6070183;23;92329;-74
2022/11/20 12:09:11;;;;;;;8.55;6.53;;;6.20;99.90;;;;;;6096302;23;92326;-74
2022/11/20 12:11:55;;;;;;;8.43;6.25;;;6.20;99.60;;;;;;6068345;23;95711;-74
2022/11/20 12:14:40;;;;;;;7.80;6.85;;;6.30;99.70;;;;;;6070184;23;95354;-74
2022/11/20 12:17:11;;;;;;;7.72;6.13;;;6.20;99.30;;;;;;6069924;23;92439;-74
2022/11/20 12:19:38;;;;;;;7.38;6.63;;;6.20;99.10;;;;;;6096680;23;92963;-74
2022/11/20 12:22:33;;;;;;;9.35;7.25;;;6.10;98.80;;;;;;6045724;23;95858;-74
2022/11/20 12:25:12;;;;;;;;;;;6.10;98.50;;;;;;6096863;23;92815;-74
2022/11/20 12:27:54;;;;;;;7.97;6.22;;;5.90;98.80;;;;;;6098100;23;92305;-74
2022/11/20 12:30:22;;;;;;;6.45;5.47;;;5.90;98.90;;;;;;6070007;23;91714;-74
2022/11/20 12:33:14;;;;;;;9.25;5.85;;;5.80;98.70;;;;;;6045641;23;95742;-74
2022/11/20 12:35:59;;;;;;;7.65;6.13;;;5.90;98.50;;;;;;6096435;23;93044;-74
2022/11/20 12:38:29;;;;;;;8.10;6.28;;;6.00;98.10;;;;;;6068448;23;94858;-74
2022/11/20 12:47:53;;;;;;;6.75;5.57;;;6.10;97.10;;;;;;6055833;23;95536;-74
2022/11/20 12:50:46;;;;;;;7.85;6.32;;;6.20;97.70;;;;;;6069273;23;92468;-74
2022/11/20 12:53:40;;;;;;;8.68;5.88;;;6.40;97.00;;;;;;6095920;23;92374;-74
2022/11/20 12:56:42;;;;;;;7.68;6.05;;;6.40;97.40;;;;;;6069546;23;95622;-74
2022/11/20 12:59:46;;;;;;;18.90;14.02;;;6.50;96.90;;;;;;6096442;23;93079;-74
2022/11/20 13:02:19;;;;;;;7.27;6.57;;;6.50;97.40;;;;;;6068942;23;92644;-74
2022/11/20 13:04:56;;;;;;;11.27;9.43;;;6.40;97.10;;;;;;6096152;23;92686;-74
2022/11/20 13:07:26;;;;;;;10.63;8.23;;;6.50;97.00;;;;;;6094345;23;95695;-74
2022/11/20 13:09:54;;;;;;;11.50;8.57;;;6.40;97.30;;;;;;6069651;23;97915;-74
2022/11/20 13:12:44;;;;;;;34.15;16.70;;;6.40;97.70;;;;;;6069026;23;98430;-74
2022/11/20 13:15:39;;;;;;;24.05;13.05;;;6.40;97.60;;;;;;6044733;23;92354;-74
2022/11/20 13:18:10;;;;;;;12.48;9.85;;;6.30;97.80;;;;;;6068989;23;95581;-74
2022/11/20 13:20:45;;;;;;;10.00;9.00;;;6.30;97.70;;;;;;6095855;23;92960;-74